Jonesburg, Louisiana
Current Conditions -  °F | °C
As of 5:53 AM on Monday 24 Nov 2014 (Local Time) from KMLU Reporting Station
Clear Clear  
Wind Chill: 51°   Ceiling: Unl
Heat Index: 51°   Visibility: 10mi
Dew Point: 43°   Wind: 9mph
Humidity: 74%   Direction: 310°NW
Pressure: 29.85"   Gusts: NA
Location:  32.4475°N, 91.7992°W
Report Text: KMLU 241153Z 31008KT 10SM CLR 11/06 A2985 RMK AO2 PK WND 30027/1116 SLP108 70060 T01060061 10161 20106 51044
Loading
Personal Weather Stations






























Interactive Weather Map New forecast layout! Learn more

10-Day Weather Forecast

Advertisements
Track Severe Weather on mobile